Time;durP1;ratioP1;P1;durP2;ratioP2;P2;SDS_P1;SDS_P2;PMS_P1;PMS_P2;Temp;Humidity;BMP_temperature;BMP_pressure;BME280_temperature;BME280_humidity;BME280_pressure;Samples;Min_cycle;Max_cycle;Signal;HPM_P1;HPM_P2
2023/01/24 00:00:51;;;;;;;;;;;;;;;4.43;100.00;101721.28;5566906;32;34329;-68
2023/01/24 00:04:01;;;;;;;;;;;;;;;4.42;100.00;101727.47;5566746;32;34982;-67
2023/01/24 00:07:07;;;;;;;;;;;;;;;4.28;100.00;101724.84;5553358;32;34985;-67
2023/01/24 00:10:16;;;;;;;;;;;;;;;4.21;100.00;101723.56;5567325;32;34246;-67
2023/01/24 00:13:23;;;;;;;;;;;;;;;4.13;100.00;101726.62;5567660;32;34921;-67
2023/01/24 00:16:34;;;;;;;;;;;;;;;4.02;100.00;101730.88;5567678;32;35028;-67
2023/01/24 00:19:40;;;;;;;;;;;;;;;3.93;100.00;101725.22;5553994;32;34672;-67
2023/01/24 00:22:47;;;;;;;;;;;;;;;3.81;100.00;101731.22;5567034;32;34513;-67
2023/01/24 00:25:55;;;;;;;;;;;;;;;3.74;100.00;101723.78;5567389;32;34595;-67
2023/01/24 00:29:06;;;;;;;;;;;;;;;3.64;100.00;101726.09;5567384;32;35244;-67
2023/01/24 00:32:15;;;;;;;;;;;;;;;3.59;100.00;101732.56;5567359;32;35129;-68
2023/01/24 00:35:22;;;;;;;;;;;;;;;3.57;100.00;101737.06;5553965;32;34315;-67
2023/01/24 00:38:31;;;;;;;;;;;;;;;3.49;100.00;101733.09;5567279;32;34555;-67
2023/01/24 00:41:42;;;;;;;;;;;;;;;3.46;100.00;101733.28;5567289;32;34582;-67
2023/01/24 00:44:48;;;;;;;;;;;;;;;3.54;100.00;101742.47;5553822;32;35005;-67
2023/01/24 00:47:56;;;;;;;;;;;;;;;3.54;100.00;101745.09;5541504;32;34545;-67
2023/01/24 00:51:04;;;;;;;;;;;;;;;3.59;100.00;101743.06;5567183;32;34771;-67
2023/01/24 00:54:12;;;;;;;;;;;;;;;3.64;100.00;101757.59;5567040;32;35059;-67
2023/01/24 00:57:19;;;;;;;;;;;;;;;3.70;100.00;101746.75;5567032;32;35021;-68
2023/01/24 01:00:28;;;;;;;;;;;;;;;3.70;100.00;101757.25;5567086;32;34201;-67
2023/01/24 01:03:37;;;;;;;;;;;;;;;3.70;100.00;101761.66;5566956;32;34585;-68
2023/01/24 01:06:46;;;;;;;;;;;;;;;3.73;100.00;101762.31;5553415;32;34403;-67
2023/01/24 01:09:53;;;;;;;;;;;;;;;3.71;100.00;101764.19;5553439;32;35111;-67
2023/01/24 01:13:12;;;;;;;;;;;;;;;3.76;100.00;101769.16;5566576;32;34941;-67
2023/01/24 01:16:19;;;;;;;;;;;;;;;3.75;100.00;101776.19;5566628;32;34516;-67
2023/01/24 01:19:27;;;;;;;;;;;;;;;3.79;100.00;101776.84;5566441;32;34933;-67
2023/01/24 01:22:37;;;;;;;;;;;;;;;3.84;100.00;101780.03;5566466;32;34411;-67
2023/01/24 01:25:46;;;;;;;;;;;;;;;3.97;100.00;101786.25;5566527;32;34746;-67
2023/01/24 01:28:55;;;;;;;;;;;;;;;4.09;100.00;101776.81;5566407;32;34560;-67
2023/01/24 01:32:03;;;;;;;;;;;;;;;4.05;100.00;101775.31;5566333;32;34382;-67
2023/01/24 01:35:10;;;;;;;;;;;;;;;3.96;100.00;101781.97;5555228;32;34186;-67
2023/01/24 01:38:18;;;;;;;;;;;;;;;4.00;100.00;101777.38;5569095;32;33897;-66
2023/01/24 01:41:23;;;;;;;;;;;;;;;4.17;100.00;101778.03;5568888;32;35241;-67
2023/01/24 01:48:00;;;;;;;;;;;;;;;4.26;100.00;101789.78;5568790;32;34615;-67
2023/01/24 01:51:12;;;;;;;;;;;;;;;4.30;100.00;101800.00;5555816;32;34831;-67
2023/01/24 01:54:21;;;;;;;;;;;;;;;4.25;100.00;101790.72;5568789;32;34455;-67
2023/01/24 01:57:31;;;;;;;;;;;;;;;4.25;100.00;101798.59;5555284;32;34422;-67
2023/01/24 02:00:39;;;;;;;;;;;;;;;4.11;100.00;101799.44;5568813;32;34601;-67
2023/01/24 02:03:49;;;;;;;;;;;;;;;4.14;100.00;101791.34;5555538;32;34310;-67
2023/01/24 02:07:11;;;;;;;;;;;;;;;4.00;100.00;101793.13;5568760;32;35186;-68
2023/01/24 02:10:19;;;;;;;;;;;;;;;4.04;100.00;101792.84;5555284;32;34315;-67
2023/01/24 02:13:25;;;;;;;;;;;;;;;3.90;100.00;101796.28;5568441;32;35077;-67
2023/01/24 02:16:35;;;;;;;;;;;;;;;3.91;100.00;101794.50;5568615;32;34630;-67
2023/01/24 02:20:05;;;;;;;;;;;;;;;3.85;100.00;101797.50;5568384;32;35151;-67
2023/01/24 02:23:32;;;;;;;;;;;;;;;3.77;100.00;101799.72;5568562;32;34567;-67
2023/01/24 02:26:39;;;;;;;;;;;;;;;3.80;100.00;101802.16;5568494;32;34631;-67
2023/01/24 02:29:46;;;;;;;;;;;;;;;3.75;100.00;101804.22;5568483;32;35200;-67
2023/01/24 02:32:54;;;;;;;;;;;;;;;3.72;100.00;101805.25;5542032;32;33307;-67
2023/01/24 02:36:13;;;;;;;;;;;;;;;3.72;100.00;101807.88;5568476;32;34577;-67
2023/01/24 02:39:26;;;;;;;;;;;;;;;3.69;100.00;101807.19;5568281;32;34493;-67
2023/01/24 02:42:38;;;;;;;;;;;;;;;3.69;100.00;101802.78;5568387;32;34312;-66
2023/01/24 02:45:46;;;;;;;;;;;;;;;3.68;100.00;101802.91;5568183;32;34466;-67
2023/01/24 02:48:53;;;;;;;;;;;;;;;3.72;100.00;101807.03;5568260;32;35195;-66
2023/01/24 02:55:27;;;;;;;;;;;;;;;3.81;100.00;101815.22;5568231;32;34887;-68
2023/01/24 02:58:35;;;;;;;;;;;;;;;3.79;100.00;101814.44;5555010;32;35505;-67
2023/01/24 03:01:42;;;;;;;;;;;;;;;3.80;100.00;101813.50;5568289;32;34298;-68
2023/01/24 03:04:51;;;;;;;;;;;;;;;3.82;100.00;101819.53;5568137;32;35240;-67
2023/01/24 03:07:57;;;;;;;;;;;;;;;3.87;100.00;101821.88;5568184;32;33873;-67
2023/01/24 03:11:06;;;;;;;;;;;;;;;3.85;100.00;101821.97;5554875;32;35161;-66
2023/01/24 03:34:49;;;;;;;;;;;;;;;3.83;100.00;101836.09;5567920;32;34934;-66
2023/01/24 03:41:25;;;;;;;;;;;;;;;3.89;100.00;101833.97;5568035;32;34398;-66
2023/01/24 03:44:34;;;;;;;;;;;;;;;3.80;100.00;101837.13;5567791;32;34965;-67
2023/01/24 03:47:41;;;;;;;;;;;;;;;3.67;100.00;101837.94;5554594;32;35498;-68
2023/01/24 03:54:14;;;;;;;;;;;;;;;3.64;100.00;101838.09;5567814;32;34584;-66
2023/01/24 03:57:22;;;;;;;;;;;;;;;3.62;100.00;101835.59;5567005;32;35176;-66
2023/01/24 04:00:33;;;;;;;;;;;;;;;3.67;100.00;101837.94;5554898;32;34525;-67
2023/01/24 04:03:41;;;;;;;;;;;;;;;3.66;100.00;101837.09;5567619;32;34435;-67
2023/01/24 04:06:53;;;;;;;;;;;;;;;3.69;100.00;101838.69;5567549;32;35005;-66
2023/01/24 04:10:02;;;;;;;;;;;;;;;3.73;100.00;101832.31;5554314;32;34566;-66
2023/01/24 04:13:12;;;;;;;;;;;;;;;3.67;100.00;101841.41;5554503;32;34475;-67
2023/01/24 04:16:22;;;;;;;;;;;;;;;3.64;100.00;101841.56;5567649;32;34611;-67
2023/01/24 04:19:34;;;;;;;;;;;;;;;3.61;100.00;101848.78;5567323;32;35222;-67
2023/01/24 04:22:41;;;;;;;;;;;;;;;3.60;100.00;101849.72;5567433;32;34593;-67
2023/01/24 04:25:54;;;;;;;;;;;;;;;3.60;100.00;101850.56;5567444;32;34313;-67
2023/01/24 04:29:02;;;;;;;;;;;;;;;3.58;100.00;101847.19;5567338;32;34639;-67
2023/01/24 04:32:10;;;;;;;;;;;;;;;3.56;100.00;101838.53;5567314;32;35229;-69
2023/01/24 04:35:23;;;;;;;;;;;;;;;3.57;100.00;101845.50;5567213;32;34954;-67
2023/01/24 04:38:29;;;;;;;;;;;;;;;3.55;100.00;101839.47;5567363;32;34620;-67
2023/01/24 04:41:36;;;;;;;;;;;;;;;3.56;100.00;101848.19;5567334;32;35423;-67
2023/01/24 04:44:44;;;;;;;;;;;;;;;3.55;100.00;101836.84;5567161;32;33493;-69
2023/01/24 04:47:53;;;;;;;;;;;;;;;3.53;100.00;101843.97;5566995;32;34056;-68
2023/01/24 04:51:04;;;;;;;;;;;;;;;3.50;100.00;101844.97;5553680;32;35135;-68
2023/01/24 04:54:12;;;;;;;;;;;;;;;3.50;100.00;101839.75;5566981;32;35655;-68
2023/01/24 04:57:18;;;;;;;;;;;;;;;3.50;100.00;101854.63;5567370;32;34521;-68
2023/01/24 05:00:29;;;;;;;;;;;;;;;3.50;100.00;101847.59;5566923;32;34975;-69
2023/01/24 05:03:36;;;;;;;;;;;;;;;3.49;100.00;101855.56;5566911;32;34388;-67
2023/01/24 05:06:44;;;;;;;;;;;;;;;3.42;100.00;101848.97;5566710;32;34553;-67
2023/01/24 05:09:51;;;;;;;;;;;;;;;3.45;100.00;101859.28;5554923;32;34407;-68
2023/01/24 05:12:59;;;;;;;;;;;;;;;3.43;100.00;101853.31;5569111;32;35152;-68
2023/01/24 05:16:09;;;;;;;;;;;;;;;3.41;100.00;101858.62;5553923;32;33995;-68
2023/01/24 05:19:17;;;;;;;;;;;;;;;3.36;100.00;101860.66;5568663;32;34931;-68
2023/01/24 05:22:25;;;;;;;;;;;;;;;3.30;100.00;101858.38;5568456;32;35220;-68
2023/01/24 05:25:31;;;;;;;;;;;;;;;3.24;100.00;101861.34;5555517;32;35178;-68
2023/01/24 05:28:38;;;;;;;;;;;;;;;3.18;100.00;101866.94;5569113;32;34426;-67
2023/01/24 05:31:45;;;;;;;;;;;;;;;3.22;100.00;101870.22;5569033;32;34882;-68
2023/01/24 05:34:51;;;;;;;;;;;;;;;3.16;100.00;101867.94;5568875;32;35237;-68
2023/01/24 05:38:02;;;;;;;;;;;;;;;3.14;100.00;101864.56;5555913;32;35205;-68
2023/01/24 05:41:10;;;;;;;;;;;;;;;3.13;100.00;101868.09;5555597;32;34051;-67
2023/01/24 05:44:19;;;;;;;;;;;;;;;3.06;100.00;101872.81;5555537;32;34583;-68
2023/01/24 05:47:25;;;;;;;;;;;;;;;3.05;100.00;101874.59;5568835;32;35076;-68
2023/01/24 05:50:31;;;;;;;;;;;;;;;2.99;100.00;101861.00;5554031;32;33288;-68
2023/01/24 05:53:45;;;;;;;;;;;;;;;2.98;100.00;101865.38;5567755;32;35379;-68
2023/01/24 05:56:54;;;;;;;;;;;;;;;2.96;100.00;101864.59;5555160;32;34557;-67
2023/01/24 06:00:01;;;;;;;;;;;;;;;3.00;100.00;101867.94;5567895;32;35136;-68
2023/01/24 06:03:08;;;;;;;;;;;;;;;2.95;100.00;101873.41;5568775;32;34270;-67
2023/01/24 06:06:15;;;;;;;;;;;;;;;2.97;100.00;101871.56;5568588;32;34550;-68
2023/01/24 06:09:19;;;;;;;;;;;;;;;2.98;100.00;101877.66;5568509;32;33995;-68
2023/01/24 06:12:26;;;;;;;;;;;;;;;2.94;100.00;101884.84;5555079;32;34388;-68
2023/01/24 06:15:33;;;;;;;;;;;;;;;3.12;100.00;101893.47;5568517;32;34423;-68
2023/01/24 06:18:38;;;;;;;;;;;;;;;3.38;100.00;101892.91;5554106;32;34548;-71
2023/01/24 06:21:45;;;;;;;;;;;;;;;3.37;100.00;101899.06;5567865;32;34414;-70
2023/01/24 06:24:52;;;;;;;;;;;;;;;3.19;100.00;101900.09;5554524;32;35126;-70
2023/01/24 06:27:59;;;;;;;;;;;;;;;2.99;100.00;101902.94;5568190;32;34923;-69
2023/01/24 06:31:12;;;;;;;;;;;;;;;2.98;100.00;101909.94;5567948;32;34737;-71
2023/01/24 06:34:36;;;;;;;;;;;;;;;3.02;100.00;101905.38;5559172;32;35120;-71
2023/01/24 06:37:48;;;;;;;;;;;;;;;2.96;100.00;101909.19;5566089;32;34360;-71
2023/01/24 06:40:55;;;;;;;;;;;;;;;2.90;100.00;101904.28;5565430;32;35101;-70
2023/01/24 06:44:00;;;;;;;;;;;;;;;2.88;100.00;101905.28;5553676;32;34851;-70
2023/01/24 06:47:04;;;;;;;;;;;;;;;2.85;100.00;101908.06;5540972;32;33326;-71
2023/01/24 06:50:13;;;;;;;;;;;;;;;3.11;100.00;101909.28;5552447;32;34335;-71
2023/01/24 06:53:18;;;;;;;;;;;;;;;2.93;100.00;101909.34;5566007;32;35380;-71
2023/01/24 06:56:23;;;;;;;;;;;;;;;2.85;100.00;101908.91;5553483;32;33724;-70
2023/01/24 06:59:27;;;;;;;;;;;;;;;2.90;100.00;101908.69;5567710;32;34917;-70
2023/01/24 07:02:33;;;;;;;;;;;;;;;2.81;100.00;101906.53;5539032;32;34866;-70
2023/01/24 07:05:39;;;;;;;;;;;;;;;2.77;100.00;101913.69;5553696;32;34594;-71
2023/01/24 07:08:45;;;;;;;;;;;;;;;2.92;100.00;101918.13;5550495;32;33520;-71
2023/01/24 07:11:52;;;;;;;;;;;;;;;2.98;100.00;101917.81;5565507;32;34798;-70
2023/01/24 07:14:57;;;;;;;;;;;;;;;2.99;100.00;101914.28;5554271;32;34936;-71
2023/01/24 07:18:04;;;;;;;;;;;;;;;2.96;100.00;101924.91;5552583;32;35180;-71
2023/01/24 07:21:08;;;;;;;;;;;;;;;3.09;100.00;101932.13;5551823;32;34934;-71
2023/01/24 07:24:14;;;;;;;;;;;;;;;3.23;100.00;101937.47;5554259;32;34745;-71
2023/01/24 07:27:18;;;;;;;;;;;;;;;3.32;100.00;101934.34;5553814;32;34326;-71
2023/01/24 07:30:23;;;;;;;;;;;;;;;3.57;100.00;101947.81;5553037;32;35066;-71
2023/01/24 07:33:28;;;;;;;;;;;;;;;3.66;100.00;101938.59;5566325;32;33693;-71
2023/01/24 07:36:32;;;;;;;;;;;;;;;3.85;100.00;101944.50;5555983;32;34837;-71
2023/01/24 07:39:36;;;;;;;;;;;;;;;4.17;100.00;101938.25;5567267;32;35586;-71
2023/01/24 07:42:39;;;;;;;;;;;;;;;4.09;100.00;101935.22;5553943;32;34142;-71
2023/01/24 07:45:44;;;;;;;;;;;;;;;4.05;100.00;101943.38;5567658;32;34999;-72
2023/01/24 07:48:48;;;;;;;;;;;;;;;4.15;100.00;101942.75;5552543;32;34317;-72
2023/01/24 07:51:53;;;;;;;;;;;;;;;4.49;100.00;101946.91;5550469;32;34011;-72
2023/01/24 07:54:57;;;;;;;;;;;;;;;4.58;100.00;101951.59;5553199;32;34407;-72
2023/01/24 07:58:02;;;;;;;;;;;;;;;4.57;100.00;101949.91;5566556;32;34708;-71
2023/01/24 08:01:07;;;;;;;;;;;;;;;4.55;100.00;101954.38;5553162;32;34886;-72
2023/01/24 08:04:12;;;;;;;;;;;;;;;4.59;100.00;101958.56;5554068;32;35657;-71
2023/01/24 08:07:19;;;;;;;;;;;;;;;4.59;100.00;101952.44;5567621;32;34097;-71
2023/01/24 08:10:24;;;;;;;;;;;;;;;4.72;100.00;101967.41;5567422;32;34466;-72
2023/01/24 08:13:28;;;;;;;;;;;;;;;4.62;100.00;101966.25;5553460;32;34289;-72
2023/01/24 08:16:33;;;;;;;;;;;;;;;4.68;100.00;101973.78;5553886;32;34459;-72
2023/01/24 08:19:38;;;;;;;;;;;;;;;4.56;100.00;101979.75;5547019;32;34995;-72
2023/01/24 08:23:00;;;;;;;;;;;;;;;4.71;100.00;101970.94;5532974;32;34869;-71
2023/01/24 08:26:06;;;;;;;;;;;;;;;4.81;100.00;101976.50;5514495;32;33611;-70
2023/01/24 08:29:09;;;;;;;;;;;;;;;5.15;100.00;101978.78;5527382;32;34091;-72
2023/01/24 08:32:13;;;;;;;;;;;;;;;5.31;100.00;101983.97;5527889;32;34397;-72
2023/01/24 08:35:19;;;;;;;;;;;;;;;5.51;100.00;101985.34;5527937;32;34814;-72
2023/01/24 08:38:25;;;;;;;;;;;;;;;5.66;100.00;101985.22;5527353;32;35148;-70
2023/01/24 08:41:28;;;;;;;;;;;;;;;5.69;100.00;101992.09;5528267;32;35010;-73
2023/01/24 08:44:32;;;;;;;;;;;;;;;5.79;100.00;101985.28;5527448;32;35104;-72
2023/01/24 08:47:36;;;;;;;;;;;;;;;5.61;100.00;101984.69;5527156;32;34197;-72
2023/01/24 08:50:43;;;;;;;;;;;;;;;5.33;100.00;101982.06;5528230;32;34271;-72
2023/01/24 08:53:49;;;;;;;;;;;;;;;5.24;100.00;101988.75;5537970;32;34290;-72
2023/01/24 08:56:53;;;;;;;;;;;;;;;5.15;100.00;101985.84;5546062;32;34619;-72
2023/01/24 08:59:58;;;;;;;;;;;;;;;5.02;100.00;101992.78;5546236;32;34456;-71
2023/01/24 09:03:02;;;;;;;;;;;;;;;5.05;100.00;101984.69;5547112;32;35017;-70
2023/01/24 09:06:07;;;;;;;;;;;;;;;5.33;100.00;101978.59;5533808;32;33417;-70
2023/01/24 09:09:11;;;;;;;;;;;;;;;5.38;100.00;101982.63;5546175;32;35456;-71
2023/01/24 09:12:15;;;;;;;;;;;;;;;5.44;100.00;101990.16;5546244;32;34562;-71
2023/01/24 09:15:19;;;;;;;;;;;;;;;5.54;100.00;101988.63;5546920;32;34444;-70
2023/01/24 09:18:26;;;;;;;;;;;;;;;5.66;100.00;101993.09;5547491;32;33776;-71
2023/01/24 09:21:30;;;;;;;;;;;;;;;5.61;100.00;101989.94;5552721;32;34932;-71
2023/01/24 09:24:35;;;;;;;;;;;;;;;5.57;100.00;101988.44;5552559;32;35085;-71
2023/01/24 09:27:41;;;;;;;;;;;;;;;5.61;100.00;101995.22;5552383;32;34872;-71
2023/01/24 09:30:47;;;;;;;;;;;;;;;5.67;100.00;101980.78;5566060;32;35226;-74
2023/01/24 09:33:52;;;;;;;;;;;;;;;5.78;100.00;101988.88;5552179;32;34555;-70
2023/01/24 09:37:02;;;;;;;;;;;;;;;5.85;100.00;101991.97;5553254;32;34473;-70
2023/01/24 09:40:06;;;;;;;;;;;;;;;5.92;100.00;101993.28;5551644;32;34259;-70
2023/01/24 09:43:30;;;;;;;;;;;;;;;6.01;100.00;101984.78;5555463;32;35147;-71
2023/01/24 09:46:42;;;;;;;;;;;;;;;6.28;100.00;101988.28;5551343;32;35222;-70
2023/01/24 09:49:58;;;;;;;;;;;;;;;6.43;100.00;101984.62;5565797;32;35895;-71
2023/01/24 09:53:03;;;;;;;;;;;;;;;6.45;100.00;101979.22;5538896;32;34061;-70
2023/01/24 09:56:22;;;;;;;;;;;;;;;6.44;100.00;101983.66;5553460;32;33942;-70
2023/01/24 09:59:39;;;;;;;;;;;;;;;6.33;100.00;101983.53;5555052;32;34864;-70
2023/01/24 10:02:43;;;;;;;;;;;;;;;6.44;100.00;101983.66;5554465;32;34446;-70
2023/01/24 10:05:50;;;;;;;;;;;;;;;6.59;100.00;101973.88;5554695;32;34227;-71
2023/01/24 10:08:58;;;;;;;;;;;;;;;6.88;100.00;101970.09;5568331;32;35154;-71
2023/01/24 10:12:12;;;;;;;;;;;;;;;6.96;100.00;101970.44;5568343;32;34473;-70
2023/01/24 10:15:17;;;;;;;;;;;;;;;7.31;100.00;101973.25;5554695;32;34775;-70
2023/01/24 10:18:46;;;;;;;;;;;;;;;7.37;100.00;101964.91;5554012;32;33664;-70
2023/01/24 10:21:53;;;;;;;;;;;;;;;7.25;100.00;101959.66;5568367;32;34354;-70
2023/01/24 10:25:01;;;;;;;;;;;;;;;7.02;100.00;101958.59;5554032;32;34301;-70
2023/01/24 10:28:16;;;;;;;;;;;;;;;6.98;100.00;101955.34;5566255;32;34847;-69
2023/01/24 10:31:20;;;;;;;;;;;;;;;7.15;100.00;101951.53;5554748;32;34916;-69
2023/01/24 10:34:37;;;;;;;;;;;;;;;7.26;100.00;101954.25;5555460;32;34222;-69
2023/01/24 10:37:45;;;;;;;;;;;;;;;7.35;100.00;101950.12;5554626;32;34524;-71
2023/01/24 10:40:54;;;;;;;;;;;;;;;7.54;100.00;101952.31;5529084;32;33266;-71
2023/01/24 10:44:04;;;;;;;;;;;;;;;7.46;100.00;101946.69;5568427;32;34823;-71
2023/01/24 10:47:18;;;;;;;;;;;;;;;7.62;100.00;101944.66;5554359;32;34483;-70
2023/01/24 10:50:25;;;;;;;;;;;;;;;7.48;100.00;101939.53;5567723;32;34437;-71
2023/01/24 10:53:28;;;;;;;;;;;;;;;7.58;100.00;101938.75;5567821;32;34447;-70
2023/01/24 10:56:37;;;;;;;;;;;;;;;7.66;100.00;101931.13;5567401;32;34220;-70
2023/01/24 10:59:41;;;;;;;;;;;;;;;7.54;100.00;101937.31;5568586;32;35233;-70
2023/01/24 11:02:47;;;;;;;;;;;;;;;7.54;100.00;101934.66;5567816;32;34538;-71
2023/01/24 11:05:52;;;;;;;;;;;;;;;7.62;100.00;101929.66;5567973;32;35038;-71
2023/01/24 11:09:02;;;;;;;;;;;;;;;7.76;100.00;101920.72;5566747;32;34731;-70
2023/01/24 11:12:12;;;;;;;;;;;;;;;8.12;100.00;101920.66;5563260;32;35176;-70
2023/01/24 11:15:36;;;;;;;;;;;;;;;8.21;100.00;101912.03;5567082;32;34508;-70
2023/01/24 11:18:45;;;;;;;;;;;;;;;8.41;100.00;101907.09;5566390;32;34600;-70
2023/01/24 11:21:52;;;;;;;;;;;;;;;8.52;99.46;101907.13;5566747;32;34430;-70
2023/01/24 11:24:57;;;;;;;;;;;;;;;8.53;96.40;101900.84;5566688;32;35084;-70
2023/01/24 11:28:02;;;;;;;;;;;;;;;8.53;98.21;101896.41;5566644;32;34508;-70
2023/01/24 11:31:14;;;;;;;;;;;;;;;8.82;96.76;101896.78;5567037;32;35659;-70
2023/01/24 11:34:28;;;;;;;;;;;;;;;8.94;95.74;101887.91;5555280;32;34556;-70
2023/01/24 11:37:51;;;;;;;;;;;;;;;8.97;96.93;101873.56;5565569;32;35136;-70
2023/01/24 11:41:09;;;;;;;;;;;;;;;9.13;92.70;101877.56;5552655;32;34440;-71
2023/01/24 11:44:15;;;;;;;;;;;;;;;8.94;92.82;101877.31;5567105;32;34443;-70
2023/01/24 11:47:20;;;;;;;;;;;;;;;8.97;92.16;101874.44;5566936;32;34597;-70
2023/01/24 11:50:32;;;;;;;;;;;;;;;8.87;94.49;101876.09;5566793;32;36045;-71
2023/01/24 11:54:01;;;;;;;;;;;;;;;8.97;92.61;101871.78;5566629;32;35304;-70
2023/01/24 11:57:27;;;;;;;;;;;;;;;9.14;91.54;101867.81;5566217;32;34267;-69
2023/01/24 12:00:40;;;;;;;;;;;;;;;9.19;91.86;101865.62;5555298;32;34621;-69
2023/01/24 12:03:55;;;;;;;;;;;;;;;9.20;91.69;101862.00;5566545;32;35078;-70
2023/01/24 12:07:18;;;;;;;;;;;;;;;9.36;89.78;101862.47;5566626;32;34699;-70
2023/01/24 12:10:27;;;;;;;;;;;;;;;9.49;86.68;101864.94;5565849;32;34653;-70
2023/01/24 12:13:36;;;;;;;;;;;;;;;9.58;83.81;101866.88;5539609;32;34814;-70
2023/01/24 12:16:50;;;;;;;;;;;;;;;9.68;84.50;101864.31;5535741;32;958186;-70
2023/01/24 12:20:14;;;;;;;;;;;;;;;9.84;80.47;101867.34;5553404;32;34379;-71
2023/01/24 12:23:39;;;;;;;;;;;;;;;9.96;80.34;101861.06;5544084;32;35048;-69
2023/01/24 12:26:54;;;;;;;;;;;;;;;9.81;79.10;101857.88;5567307;32;34708;-69
2023/01/24 12:30:04;;;;;;;;;;;;;;;9.33;80.46;101854.78;5567225;32;34549;-69
2023/01/24 12:33:11;;;;;;;;;;;;;;;9.54;79.44;101860.13;5565662;32;34508;-71
2023/01/24 12:36:34;;;;;;;;;;;;;;;9.63;78.55;101853.25;5553177;32;35138;-70
2023/01/24 12:39:43;;;;;;;;;;;;;;;10.07;77.12;101855.69;5567243;32;34553;-70
2023/01/24 12:42:52;;;;;;;;;;;;;;;9.48;79.65;101858.00;5553357;32;34207;-70
2023/01/24 12:46:25;;;;;;;;;;;;;;;9.59;80.03;101853.47;5553749;32;34137;-71
2023/01/24 12:49:33;;;;;;;;;;;;;;;9.27;81.85;101843.81;5565190;32;34710;-70
2023/01/24 12:52:55;;;;;;;;;;;;;;;9.22;82.61;101854.78;5542903;32;34432;-70
2023/01/24 12:56:01;;;;;;;;;;;;;;;8.78;84.33;101860.94;5565910;32;35184;-70
2023/01/24 12:59:07;;;;;;;;;;;;;;;8.62;86.34;101852.50;5565145;32;34323;-70
2023/01/24 13:02:21;;;;;;;;;;;;;;;8.48;86.26;101852.75;5552404;32;33939;-69
2023/01/24 13:05:31;;;;;;;;;;;;;;;8.35;86.43;101852.00;5553107;32;34720;-69
2023/01/24 13:08:39;;;;;;;;;;;;;;;8.26;89.03;101853.53;5552933;32;34424;-68
2023/01/24 13:11:46;;;;;;;;;;;;;;;8.35;90.04;101850.22;5566899;32;34628;-69
2023/01/24 13:15:01;;;;;;;;;;;;;;;7.99;99.16;101839.78;5552916;32;34095;-69
2023/01/24 13:18:18;;;;;;;;;;;;;;;7.95;100.00;101844.44;5552635;32;34492;-69
2023/01/24 13:21:34;;;;;;;;;;;;;;;7.81;100.00;101847.25;5536217;32;34421;-68
2023/01/24 13:24:48;;;;;;;;;;;;;;;7.78;100.00;101845.69;5544253;32;34836;-69
2023/01/24 13:27:59;;;;;;;;;;;;;;;7.60;100.00;101844.41;5545605;32;33342;-69
2023/01/24 13:31:04;;;;;;;;;;;;;;;7.24;100.00;101849.72;5547881;32;34513;-69
2023/01/24 13:34:14;;;;;;;;;;;;;;;7.10;100.00;101845.44;5549464;32;34516;-69
2023/01/24 13:37:21;;;;;;;;;;;;;;;7.18;100.00;101842.25;5548725;32;34510;-69
2023/01/24 13:40:30;;;;;;;;;;;;;;;7.25;100.00;101846.16;5542144;32;34593;-70
2023/01/24 13:43:47;;;;;;;;;;;;;;;7.23;100.00;101848.88;5528804;32;34504;-70
2023/01/24 13:46:53;;;;;;;;;;;;;;;7.10;100.00;101845.44;5529947;32;34472;-69
2023/01/24 13:50:00;;;;;;;;;;;;;;;7.13;100.00;101845.22;5529056;32;34534;-69
2023/01/24 13:53:07;;;;;;;;;;;;;;;7.26;100.00;101850.47;5516465;32;33706;-70
2023/01/24 13:56:10;;;;;;;;;;;;;;;7.37;100.00;101847.88;5529440;32;34256;-70
2023/01/24 13:59:15;;;;;;;;;;;;;;;7.46;100.00;101844.56;5529869;32;34739;-70
2023/01/24 14:02:43;;;;;;;;;;;;;;;7.38;100.00;101853.06;5530936;32;34544;-70
2023/01/24 14:05:52;;;;;;;;;;;;;;;7.56;100.00;101850.03;5528630;32;34538;-70
2023/01/24 14:09:00;;;;;;;;;;;;;;;7.64;100.00;101851.16;5531584;32;33077;-70
2023/01/24 14:12:06;;;;;;;;;;;;;;;7.67;100.00;101856.22;5531368;32;34530;-70
2023/01/24 14:15:12;;;;;;;;;;;;;;;7.53;100.00;101848.47;5532682;32;34506;-70
2023/01/24 14:18:35;;;;;;;;;;;;;;;7.42;100.00;101851.03;5546939;31;34361;-70
2023/01/24 14:22:00;;;;;;;;;;;;;;;7.34;100.00;101858.69;5567611;31;34564;-70
2023/01/24 14:25:25;;;;;;;;;;;;;;;7.20;100.00;101853.56;5554445;32;33139;-69
2023/01/24 14:28:40;;;;;;;;;;;;;;;7.26;100.00;101858.41;5566993;32;34709;-69
2023/01/24 14:31:55;;;;;;;;;;;;;;;7.08;100.00;101854.41;5540529;32;33513;-70
2023/01/24 14:35:14;;;;;;;;;;;;;;;6.84;100.00;101855.19;5555096;32;34644;-70
2023/01/24 14:38:19;;;;;;;;;;;;;;;6.85;100.00;101848.13;5565289;32;34509;-70
2023/01/24 14:41:24;;;;;;;;;;;;;;;6.64;100.00;101849.63;5564864;32;34973;-70
2023/01/24 14:44:32;;;;;;;;;;;;;;;6.63;100.00;101850.59;5552143;32;35138;-69
2023/01/24 14:47:36;;;;;;;;;;;;;;;6.57;100.00;101851.88;5551553;32;34697;-70
2023/01/24 14:50:40;;;;;;;;;;;;;;;6.49;100.00;101855.00;5565136;32;34365;-69
2023/01/24 14:53:46;;;;;;;;;;;;;;;6.34;100.00;101858.69;5552879;32;35090;-69
2023/01/24 14:56:51;;;;;;;;;;;;;;;6.41;100.00;101857.34;5565292;32;34710;-70
2023/01/24 15:00:02;;;;;;;;;;;;;;;6.42;100.00;101858.19;5553837;32;34010;-70
2023/01/24 15:03:14;;;;;;;;;;;;;;;6.41;100.00;101857.34;5552884;32;34623;-70
2023/01/24 15:06:18;;;;;;;;;;;;;;;6.31;100.00;101855.44;5567444;31;34361;-70
2023/01/24 15:09:23;;;;;;;;;;;;;;;6.28;100.00;101858.28;5552405;32;34744;-70
2023/01/24 15:12:32;;;;;;;;;;;;;;;6.03;100.00;101859.94;5563575;32;34559;-69
2023/01/24 15:15:39;;;;;;;;;;;;;;;6.04;100.00;101866.06;5566872;32;34158;-69
2023/01/24 15:18:51;;;;;;;;;;;;;;;6.03;100.00;101870.47;5552834;32;35814;-69
2023/01/24 15:21:57;;;;;;;;;;;;;;;5.97;100.00;101873.50;5566371;32;34033;-69
2023/01/24 15:25:03;;;;;;;;;;;;;;;5.89;100.00;101877.59;5554214;32;34999;-69
2023/01/24 15:28:18;;;;;;;;;;;;;;;5.74;100.00;101881.19;5554131;32;34519;-69
2023/01/24 15:31:23;;;;;;;;;;;;;;;5.73;100.00;101887.41;5566416;32;34526;-69
2023/01/24 15:34:30;;;;;;;;;;;;;;;5.65;100.00;101886.12;5567254;32;34901;-69
2023/01/24 15:37:35;;;;;;;;;;;;;;;5.54;100.00;101882.50;5553176;32;33517;-68
2023/01/24 15:40:56;;;;;;;;;;;;;;;5.52;100.00;101874.69;5566978;32;35017;-69
2023/01/24 15:44:08;;;;;;;;;;;;;;;5.53;100.00;101886.91;5567372;32;34225;-68
2023/01/24 15:51:09;;;;;;;;;;;;;;;5.45;100.00;101883.09;5566194;32;35210;-68
2023/01/24 15:54:15;;;;;;;;;;;;;;;5.27;100.00;101890.38;5566511;32;35213;-71
2023/01/24 15:57:20;;;;;;;;;;;;;;;5.11;100.00;101890.47;5567301;32;34483;-69
2023/01/24 16:00:26;;;;;;;;;;;;;;;5.09;100.00;101891.50;5567290;32;34596;-68
2023/01/24 16:03:32;;;;;;;;;;;;;;;5.16;100.00;101893.69;5566398;32;35080;-70
2023/01/24 16:06:38;;;;;;;;;;;;;;;5.05;100.00;101901.37;5566280;32;34767;-70
2023/01/24 16:09:45;;;;;;;;;;;;;;;4.94;100.00;101905.63;5566201;32;35060;-70
2023/01/24 16:12:50;;;;;;;;;;;;;;;4.80;100.00;101907.31;5553573;32;35082;-69
2023/01/24 16:15:58;;;;;;;;;;;;;;;4.61;100.00;101911.13;5566831;32;34760;-69
2023/01/24 16:19:13;;;;;;;;;;;;;;;4.71;100.00;101909.66;5564763;31;34674;-68
2023/01/24 16:22:21;;;;;;;;;;;;;;;4.71;100.00;101912.28;5573604;31;34886;-69
2023/01/24 16:25:26;;;;;;;;;;;;;;;4.67;100.00;101916.88;5587228;31;35047;-68
2023/01/24 16:28:35;;;;;;;;;;;;;;;4.60;100.00;101909.47;5573810;31;34184;-70
2023/01/24 16:31:42;;;;;;;;;;;;;;;4.56;100.00;101910.56;5586956;31;33998;-70
2023/01/24 16:34:52;;;;;;;;;;;;;;;4.65;100.00;101902.97;5574112;31;34447;-69
2023/01/24 16:38:00;;;;;;;;;;;;;;;4.66;100.00;101903.81;5566280;32;35244;-70
2023/01/24 16:41:09;;;;;;;;;;;;;;;4.61;100.00;101905.88;5567090;32;34502;-69
2023/01/24 16:44:16;;;;;;;;;;;;;;;4.62;100.00;101902.31;5567111;32;35008;-69
2023/01/24 16:47:23;;;;;;;;;;;;;;;4.49;100.00;101907.47;5567086;32;35607;-69
2023/01/24 16:50:31;;;;;;;;;;;;;;;4.56;100.00;101914.03;5567611;32;34596;-70